ولاية سوق أهراس, الجزائر

06:26 PM CET on أمتèبر 25, 2014 (GMT +0100)
Cheikh Larbi Tebessi | Change Station
CLOSE
Current Station
Airport
Location: Tebessa,
Elevation: 2661 ft
Nearby Weather Stations

Elev 2661 ft 35.43 °N, 8.12 °E | Updated 26 minutes ago

Partly Cloudy
غائم جزئياً
70 °F
Feels Like 70 °F
N
12
ريح متغير ريح from NNW

هذا اليوم
High -- | Low -- °F
--% Chance of Precip.
Yesterday
High -- | Low -- °F
Precip. -- في
6:44 AM 5:39 PM
الهلال الأول, 4% visible
الضغط 30.12 في
وضوح الرؤية 6.2 أميال
سحابات Few 4000 ft
نقطة الندى 48 °F
الرطوبة 46%
Rainfall 0.00 في
عمق الثلج Not available.
الأشعة فوق البنفسجية 0 out of 12
Pollen Not available.
جودة الهواء Not available.
Flu Activity Not available.
METAR DABS 251700Z 34010KT 9999 FEW040 21/09 Q1020

More Conditions Fewer Conditions

الضغط 30.12 في
وضوح الرؤية 6.2 أميال
سحابات Few 4000 ft
نقطة الندى 48 °F
الرطوبة 46%
Rainfall 0.00 في
عمق الثلج Not available.
الأشعة فوق البنفسجية 0 out of 12
Pollen Not available.
جودة الهواء Not available.
Flu Activity Not available.
METAR DABS 251700Z 34010KT 9999 FEW040 21/09 Q1020

More Conditions Fewer Conditions

10-Day Weather Forecast

Almanac

علم الفلك

Oct. 25, 2014 Rise Set
Actual Time 6:44 AM CET 5:39 PM CET
Civil Twilight 6:17 AM CET 6:06 PM CET
Nautical Twilight 5:47 AM CET 6:36 PM CET
Astronomical Twilight 5:17 AM CET 7:06 PM CET
قمر 8:04 AM CET 6:52 PM CET
Length Of Visible Light 11h 48m
طول الیوم
10h 55m
Tomorrow will be 2m 7s shorter.
الهلال الأول, 4% of the Moon is Illuminated
هذا اليوم
الهلال الأول
Oct 30
الربع الاول
Nov 6
بدر
Nov 14
الربع الآخر
Nov 22
New

Today's Extremes

Country Highs Country Lows

Community

WunderPhotos

Upload Photos

1,764,918 photos uploaded!

Nearby

جودة الهواء

Not available.

عمق الثلج

Not available.

Earthquake Activity

City Distance Mag. Time & Date
No recent earthquake activity has been reported nearby.
Minimum magnitude displayed is 2.5.

Coastal Water Temperatures

مكان درجات الحرارة
No Stations Reporting

Nearby Weather Stations